createdAt,value
2023-04-18T00:00:56.387Z,0.00
2023-04-18T00:01:56.033Z,0.00
2023-04-18T00:02:56.276Z,0.00
2023-04-18T00:03:56.137Z,0.00
2023-04-18T00:04:56.473Z,0.00
2023-04-18T00:05:56.032Z,0.00
2023-04-18T00:06:55.954Z,0.00
2023-04-18T00:07:55.954Z,0.00
2023-04-18T00:08:55.988Z,0.00
2023-04-18T00:09:56.235Z,0.00
2023-04-18T00:10:55.942Z,0.00
2023-04-18T00:11:55.879Z,0.00
2023-04-18T00:12:55.896Z,0.00
2023-04-18T00:13:55.905Z,0.00
2023-04-18T00:14:55.856Z,0.00
2023-04-18T00:15:55.837Z,0.00
2023-04-18T00:16:55.935Z,0.00
2023-04-18T00:17:55.846Z,0.00
2023-04-18T00:18:55.841Z,0.00
2023-04-18T00:19:55.822Z,0.00
2023-04-18T00:20:55.783Z,0.00
2023-04-18T00:21:56.108Z,0.00
2023-04-18T00:22:55.738Z,0.00
2023-04-18T00:23:55.769Z,0.00
2023-04-18T00:24:55.735Z,0.00
2023-04-18T00:25:55.709Z,0.00
2023-04-18T00:26:58.438Z,0.00
2023-04-18T00:27:55.709Z,0.00
2023-04-18T00:28:55.689Z,0.00
2023-04-18T00:29:55.713Z,0.00
2023-04-18T00:30:56.073Z,0.00
2023-04-18T00:32:04.092Z,0.00
2023-04-18T00:33:02.990Z,0.00
2023-04-18T00:34:03.431Z,0.00
2023-04-18T00:35:02.997Z,0.00
2023-04-18T00:35:55.957Z,0.00
2023-04-18T00:36:55.612Z,0.00
2023-04-18T00:37:55.926Z,0.00
2023-04-18T00:38:55.582Z,0.00
2023-04-18T00:39:55.910Z,0.00
2023-04-18T00:40:55.600Z,0.00
2023-04-18T00:41:55.524Z,0.00
2023-04-18T00:42:55.883Z,0.00
2023-04-18T00:43:55.519Z,0.00
2023-04-18T00:44:55.535Z,0.00
2023-04-18T00:45:55.510Z,0.00
2023-04-18T00:46:55.517Z,0.00
2023-04-18T00:47:55.556Z,0.00
2023-04-18T00:48:55.469Z,0.00
2023-04-18T00:49:55.440Z,0.00
2023-04-18T00:50:55.455Z,0.00
2023-04-18T00:51:55.455Z,0.00
2023-04-18T00:52:55.406Z,0.00
2023-04-18T00:53:55.461Z,0.00
2023-04-18T00:54:55.770Z,0.00
2023-04-18T00:55:55.363Z,0.00
2023-04-18T00:56:55.386Z,0.00
2023-04-18T00:57:55.326Z,0.00
2023-04-18T00:58:55.375Z,0.00
2023-04-18T00:59:55.342Z,0.00
2023-04-18T01:00:55.325Z,0.00
2023-04-18T01:01:55.463Z,0.00
2023-04-18T01:02:56.039Z,0.00
2023-04-18T01:03:55.507Z,0.00
2023-04-18T01:04:55.590Z,0.00
2023-04-18T01:05:55.275Z,0.00
2023-04-18T01:06:55.265Z,0.00
2023-04-18T01:07:55.252Z,0.00
2023-04-18T01:08:55.227Z,0.00
2023-04-18T01:09:55.207Z,0.00
2023-04-18T01:10:55.206Z,0.00
2023-04-18T01:11:55.197Z,0.00
2023-04-18T01:12:55.218Z,0.00
2023-04-18T01:13:55.201Z,0.00
2023-04-18T01:14:55.187Z,0.00
2023-04-18T01:15:55.605Z,0.00
2023-04-18T01:16:55.102Z,0.00
2023-04-18T01:17:56.921Z,0.00
2023-04-18T01:18:55.109Z,0.00
2023-04-18T01:19:55.133Z,0.00
2023-04-18T01:20:55.080Z,0.00
2023-04-18T01:21:55.093Z,0.00
2023-04-18T01:22:55.115Z,0.00
2023-04-18T01:23:57.806Z,0.00
2023-04-18T01:24:55.041Z,0.00
2023-04-18T01:25:55.317Z,0.00
2023-04-18T01:26:55.877Z,0.00
2023-04-18T01:27:54.982Z,0.00
2023-04-18T01:28:55.371Z,0.00
2023-04-18T01:29:55.029Z,0.00
2023-04-18T01:30:54.988Z,0.00
2023-04-18T01:31:54.944Z,0.00
2023-04-18T01:32:54.964Z,0.00
2023-04-18T01:33:54.951Z,0.00
2023-04-18T01:34:55.201Z,0.00
2023-04-18T01:35:55.457Z,0.00
2023-04-18T01:36:54.921Z,0.00
2023-04-18T01:37:55.247Z,0.00
2023-04-18T01:38:54.914Z,0.00
2023-04-18T01:39:54.846Z,0.00
2023-04-18T01:40:56.706Z,0.00
2023-04-18T01:41:55.954Z,0.00
2023-04-18T01:42:55.229Z,0.00
2023-04-18T01:43:54.837Z,0.00
2023-04-18T01:44:54.807Z,0.00
2023-04-18T01:45:56.737Z,0.00
2023-04-18T01:46:54.839Z,0.00
2023-04-18T01:47:55.080Z,0.00
2023-04-18T01:48:55.294Z,0.00
2023-04-18T01:49:54.807Z,0.00
2023-04-18T01:50:54.728Z,0.00
2023-04-18T01:51:56.521Z,0.00
2023-04-18T01:52:56.650Z,0.00
2023-04-18T01:53:55.094Z,0.00
2023-04-18T01:54:55.060Z,0.00
2023-04-18T01:55:55.522Z,0.00
2023-04-18T01:56:56.504Z,0.00
2023-04-18T01:57:57.488Z,0.00
2023-04-18T01:58:55.034Z,0.00
2023-04-18T01:59:55.948Z,0.00
2023-04-18T02:00:55.012Z,0.00
2023-04-18T02:01:54.714Z,0.00
2023-04-18T02:02:56.618Z,0.00
2023-04-18T02:03:55.141Z,0.00
2023-04-18T02:04:54.933Z,0.00
2023-04-18T02:05:55.062Z,0.00
2023-04-18T02:06:55.476Z,0.00
2023-04-18T02:07:54.539Z,0.00
2023-04-18T02:08:57.335Z,0.00
2023-04-18T02:09:54.832Z,0.00
2023-04-18T02:10:56.419Z,0.00
2023-04-18T02:11:54.747Z,0.00
2023-04-18T02:12:54.840Z,0.00
2023-04-18T02:13:56.363Z,0.00
2023-04-18T02:14:54.484Z,0.00
2023-04-18T02:15:54.818Z,0.00
2023-04-18T02:16:54.900Z,0.00
2023-04-18T02:17:54.885Z,0.00
2023-04-18T02:18:54.724Z,0.00
2023-04-18T02:19:54.783Z,0.00
2023-04-18T02:21:03.404Z,0.00
2023-04-18T02:22:03.242Z,0.00
2023-04-18T02:23:03.671Z,0.00
2023-04-18T02:23:54.363Z,0.00
2023-04-18T02:24:54.656Z,0.00
2023-04-18T02:25:54.761Z,0.00
2023-04-18T02:26:54.715Z,0.00
2023-04-18T02:27:54.613Z,0.00
2023-04-18T02:28:54.665Z,0.00
2023-04-18T02:29:54.291Z,0.00
2023-04-18T02:30:54.448Z,0.00
2023-04-18T02:31:54.312Z,0.00
2023-04-18T02:32:56.177Z,0.00
2023-04-18T02:33:54.291Z,0.00
2023-04-18T02:34:54.212Z,0.00
2023-04-18T02:35:56.119Z,0.00
2023-04-18T02:36:54.564Z,0.00
2023-04-18T02:37:56.105Z,0.00
2023-04-18T02:38:56.057Z,0.00
2023-04-18T02:39:56.933Z,0.00
2023-04-18T02:40:54.907Z,0.00
2023-04-18T02:41:57.005Z,0.00
2023-04-18T02:42:55.925Z,0.00
2023-04-18T02:43:54.922Z,0.00
2023-04-18T02:44:54.453Z,0.00
2023-04-18T02:45:56.062Z,0.00
2023-04-18T02:46:55.868Z,0.00
2023-04-18T02:47:57.007Z,0.00
2023-04-18T02:48:55.904Z,0.00
2023-04-18T02:49:54.372Z,0.00
2023-04-18T02:50:54.366Z,0.00
2023-04-18T02:51:54.406Z,0.00
2023-04-18T02:52:54.406Z,0.00
2023-04-18T02:53:54.386Z,0.00
2023-04-18T02:54:54.379Z,0.00
2023-04-18T02:55:56.825Z,0.00
2023-04-18T02:56:56.813Z,0.00
2023-04-18T02:57:54.257Z,0.00
2023-04-18T02:58:54.000Z,0.00
2023-04-18T02:59:53.948Z,0.00
2023-04-18T03:00:53.985Z,0.00
2023-04-18T03:01:54.290Z,0.00
2023-04-18T03:02:54.041Z,0.00
2023-04-18T03:03:56.673Z,0.00
2023-04-18T03:04:53.908Z,0.00
2023-04-18T03:05:53.973Z,0.00
2023-04-18T03:06:53.911Z,0.00
2023-04-18T03:07:53.863Z,0.00
2023-04-18T03:08:54.155Z,0.00
2023-04-18T03:09:53.812Z,0.00
2023-04-18T03:10:55.096Z,0.00
2023-04-18T03:11:53.808Z,0.00
2023-04-18T03:12:53.814Z,0.00
2023-04-18T03:13:53.785Z,0.00
2023-04-18T03:14:53.778Z,0.00
2023-04-18T03:15:53.790Z,0.00
2023-04-18T03:16:55.224Z,0.00
2023-04-18T03:17:53.792Z,0.00
2023-04-18T03:18:53.726Z,0.00
2023-04-18T03:19:53.697Z,0.00
2023-04-18T03:20:53.743Z,0.00
2023-04-18T03:21:53.699Z,0.00
2023-04-18T03:22:53.688Z,0.00
2023-04-18T03:23:53.692Z,0.00
2023-04-18T03:24:53.677Z,0.00
2023-04-18T03:25:53.674Z,0.00
2023-04-18T03:26:53.633Z,0.00
2023-04-18T03:27:53.641Z,0.00
2023-04-18T03:28:53.607Z,0.00
2023-04-18T03:29:53.605Z,0.00
2023-04-18T03:30:53.632Z,0.00
2023-04-18T03:31:53.574Z,0.00
2023-04-18T03:32:53.713Z,0.00
2023-04-18T03:33:53.575Z,0.00
2023-04-18T03:34:53.577Z,0.00
2023-04-18T03:35:53.535Z,0.00
2023-04-18T03:36:53.533Z,0.00
2023-04-18T03:37:53.527Z,0.00
2023-04-18T03:38:53.541Z,0.00
2023-04-18T03:39:53.495Z,0.00
2023-04-18T03:40:56.183Z,0.00
2023-04-18T03:41:53.512Z,0.00
2023-04-18T03:42:56.193Z,0.00
2023-04-18T03:43:53.481Z,0.00
2023-04-18T03:44:53.431Z,0.00
2023-04-18T03:45:53.520Z,0.00
2023-04-18T03:46:53.400Z,0.00
2023-04-18T03:47:53.450Z,0.00
2023-04-18T03:48:53.746Z,0.00
2023-04-18T03:49:53.365Z,0.00
2023-04-18T03:50:53.377Z,0.00
2023-04-18T03:51:53.366Z,0.00
2023-04-18T03:52:53.763Z,0.00
2023-04-18T03:53:53.340Z,0.00
2023-04-18T03:54:53.313Z,0.00
2023-04-18T03:55:53.329Z,0.00
2023-04-18T03:56:53.298Z,0.00
2023-04-18T03:57:53.313Z,0.00
2023-04-18T03:58:53.281Z,0.00
2023-04-18T03:59:53.287Z,4.00
2023-04-18T04:00:53.294Z,4.00
2023-04-18T04:01:53.371Z,0.00
2023-04-18T04:03:00.646Z,4.00
2023-04-18T04:04:00.620Z,4.00
2023-04-18T04:05:00.282Z,0.00
2023-04-18T04:06:00.550Z,4.00
2023-04-18T04:07:03.107Z,4.00
2023-04-18T04:07:53.192Z,8.00
2023-04-18T04:08:53.400Z,8.00
2023-04-18T04:09:53.164Z,8.00
2023-04-18T04:10:53.153Z,8.00
2023-04-18T04:11:53.122Z,12.00
2023-04-18T04:12:53.133Z,12.00
2023-04-18T04:13:53.130Z,16.00
2023-04-18T04:14:53.430Z,16.00
2023-04-18T04:15:53.187Z,20.00
2023-04-18T04:16:53.478Z,20.00
2023-04-18T04:17:53.123Z,24.00
2023-04-18T04:18:53.099Z,28.00
2023-04-18T04:19:53.050Z,32.00
2023-04-18T04:20:53.049Z,36.00
2023-04-18T04:21:53.027Z,44.00
2023-04-18T04:22:53.029Z,52.00
2023-04-18T04:23:53.034Z,60.00
2023-04-18T04:24:52.998Z,68.00
2023-04-18T04:25:52.978Z,72.00
2023-04-18T04:26:52.980Z,84.00
2023-04-18T04:27:55.654Z,96.00
2023-04-18T04:28:52.940Z,100.00
2023-04-18T04:29:53.226Z,112.00
2023-04-18T04:30:52.933Z,124.00
2023-04-18T04:31:53.039Z,136.00
2023-04-18T04:32:52.970Z,148.00
2023-04-18T04:33:52.896Z,160.00
2023-04-18T04:34:52.867Z,172.00
2023-04-18T04:35:53.250Z,184.00
2023-04-18T04:36:52.840Z,200.00
2023-04-18T04:37:52.840Z,212.00
2023-04-18T04:38:52.895Z,228.00
2023-04-18T04:39:52.845Z,240.00
2023-04-18T04:40:52.835Z,252.00
2023-04-18T04:41:52.808Z,272.00
2023-04-18T04:42:52.845Z,284.00
2023-04-18T04:43:52.801Z,292.00
2023-04-18T04:44:52.829Z,300.00
2023-04-18T04:45:52.800Z,312.00
2023-04-18T04:46:52.722Z,324.00
2023-04-18T04:47:52.773Z,344.00
2023-04-18T04:48:53.038Z,372.00
2023-04-18T04:49:52.740Z,404.00
2023-04-18T04:50:55.484Z,428.00
2023-04-18T04:51:55.518Z,448.00
2023-04-18T04:52:52.675Z,468.00
2023-04-18T04:53:54.481Z,496.00
2023-04-18T04:54:52.649Z,528.00
2023-04-18T04:55:52.651Z,560.00
2023-04-18T04:56:52.647Z,588.00
2023-04-18T04:57:52.744Z,604.00
2023-04-18T04:58:52.642Z,624.00
2023-04-18T04:59:52.581Z,652.00
2023-04-18T05:00:52.715Z,680.00
2023-04-18T05:01:52.738Z,704.00
2023-04-18T05:02:52.679Z,736.00
2023-04-18T05:03:53.039Z,764.00
2023-04-18T05:04:56.072Z,808.00
2023-04-18T05:05:55.484Z,864.00
2023-04-18T05:06:52.522Z,920.00
2023-04-18T05:07:52.504Z,972.00
2023-04-18T05:08:52.504Z,1008.00
2023-04-18T05:09:52.502Z,1048.00
2023-04-18T05:10:52.485Z,1096.00
2023-04-18T05:11:52.444Z,1160.00
2023-04-18T05:12:52.484Z,1228.00
2023-04-18T05:13:52.427Z,1288.00
2023-04-18T05:14:52.778Z,1360.00
2023-04-18T05:15:52.807Z,1428.00
2023-04-18T05:16:52.792Z,1480.00
2023-04-18T05:17:52.477Z,1528.00
2023-04-18T05:18:52.369Z,1584.00
2023-04-18T05:19:52.376Z,1636.00
2023-04-18T05:20:52.668Z,1684.00
2023-04-18T05:21:52.380Z,1732.00
2023-04-18T05:22:52.334Z,1800.00
2023-04-18T05:23:52.686Z,1868.00
2023-04-18T05:24:52.343Z,1932.00
2023-04-18T05:25:52.339Z,1976.00
2023-04-18T05:26:57.606Z,2012.00
2023-04-18T05:27:52.309Z,2048.00
2023-04-18T05:28:52.661Z,2072.00
2023-04-18T05:29:52.254Z,2092.00
2023-04-18T05:30:52.570Z,2104.00
2023-04-18T05:31:52.555Z,2108.00
2023-04-18T05:32:52.268Z,2116.00
2023-04-18T05:33:52.295Z,2132.00
2023-04-18T05:34:52.488Z,2176.00
2023-04-18T05:35:52.264Z,2208.00
2023-04-18T05:36:52.447Z,2228.00
2023-04-18T05:37:52.520Z,2256.00
2023-04-18T05:38:52.423Z,2288.00
2023-04-18T05:39:52.130Z,2328.00
2023-04-18T05:40:52.105Z,2376.00
2023-04-18T05:41:52.144Z,2432.00
2023-04-18T05:42:52.139Z,2500.00
2023-04-18T05:44:16.950Z,2560.00
2023-04-18T05:44:53.059Z,2616.00
2023-04-18T05:45:58.011Z,2668.00
2023-04-18T05:47:00.063Z,2728.00
2023-04-18T05:48:00.434Z,2776.00
2023-04-18T05:49:00.054Z,2840.00
2023-04-18T05:50:01.384Z,2912.00
2023-04-18T05:50:59.378Z,2952.00
2023-04-18T05:52:00.504Z,3016.00
2023-04-18T05:52:52.010Z,3060.00
2023-04-18T05:53:51.974Z,3128.00
2023-04-18T05:54:52.232Z,3200.00
2023-04-18T05:55:51.960Z,3276.00
2023-04-18T05:56:51.960Z,3344.00
2023-04-18T05:57:51.937Z,3428.00
2023-04-18T05:58:51.922Z,3504.00
2023-04-18T05:59:51.949Z,3572.00
2023-04-18T06:00:51.893Z,3636.00
2023-04-18T06:01:52.215Z,3696.00
2023-04-18T06:02:52.059Z,3776.00
2023-04-18T06:03:52.081Z,3840.00
2023-04-18T06:04:52.030Z,3916.00
2023-04-18T06:05:51.865Z,4000.00
2023-04-18T06:06:51.846Z,4068.00
2023-04-18T06:07:51.847Z,4156.00
2023-04-18T06:08:51.796Z,4252.00
2023-04-18T06:09:51.820Z,4340.00
2023-04-18T06:10:51.763Z,4428.00
2023-04-18T06:11:51.778Z,4512.00
2023-04-18T06:12:51.775Z,4600.00
2023-04-18T06:13:51.756Z,4672.00
2023-04-18T06:14:51.713Z,4744.00
2023-04-18T06:15:51.782Z,4820.00
2023-04-18T06:16:52.051Z,4892.00
2023-04-18T06:17:51.748Z,4940.00
2023-04-18T06:18:51.673Z,5024.00
2023-04-18T06:19:51.972Z,5084.00
2023-04-18T06:20:52.020Z,5120.00
2023-04-18T06:21:51.659Z,5132.00
2023-04-18T06:22:51.681Z,5172.00
2023-04-18T06:23:51.930Z,5184.00
2023-04-18T06:24:51.620Z,5184.00
2023-04-18T06:25:51.596Z,5200.00
2023-04-18T06:26:51.601Z,5172.00
2023-04-18T06:27:51.584Z,5028.00
2023-04-18T06:28:51.558Z,4944.00
2023-04-18T06:29:51.579Z,4924.00
2023-04-18T06:30:51.535Z,4972.00
2023-04-18T06:31:51.653Z,4884.00
2023-04-18T06:32:51.582Z,4864.00
2023-04-18T06:33:51.512Z,4796.00
2023-04-18T06:34:51.796Z,4660.00
2023-04-18T06:35:51.476Z,4544.00
2023-04-18T06:36:51.462Z,4512.00
2023-04-18T06:37:51.483Z,4460.00
2023-04-18T06:38:51.833Z,4528.00
2023-04-18T06:39:51.441Z,4536.00
2023-04-18T06:40:51.440Z,4552.00
2023-04-18T06:41:51.446Z,4492.00
2023-04-18T06:42:51.396Z,4528.00
2023-04-18T06:44:14.511Z,4572.00
2023-04-18T06:44:52.418Z,4616.00
2023-04-18T06:45:51.748Z,4612.00
2023-04-18T06:46:51.356Z,4580.00
2023-04-18T06:47:51.712Z,4572.00
2023-04-18T06:48:51.628Z,4564.00
2023-04-18T06:49:51.706Z,4568.00
2023-04-18T06:50:51.651Z,4572.00
2023-04-18T06:51:51.343Z,4580.00
2023-04-18T06:52:51.283Z,4564.00
2023-04-18T06:53:51.286Z,4556.00
2023-04-18T06:54:51.576Z,4528.00
2023-04-18T06:55:51.231Z,4516.00
2023-04-18T06:56:51.645Z,4516.00
2023-04-18T06:57:51.256Z,4540.00
2023-04-18T06:58:51.228Z,4568.00
2023-04-18T06:59:51.211Z,4700.00
2023-04-18T07:00:51.210Z,4516.00
2023-04-18T07:01:51.211Z,4624.00
2023-04-18T07:02:51.295Z,4624.00
2023-04-18T07:03:51.271Z,4604.00
2023-04-18T07:04:51.168Z,4596.00
2023-04-18T07:05:51.458Z,4680.00
2023-04-18T07:06:51.125Z,4568.00
2023-04-18T07:07:51.123Z,4500.00
2023-04-18T07:08:53.317Z,4296.00
2023-04-18T07:09:51.127Z,4360.00
2023-04-18T07:10:51.065Z,3884.00
2023-04-18T07:11:53.931Z,3852.00
2023-04-18T07:12:51.080Z,3812.00
2023-04-18T07:13:51.050Z,3824.00
2023-04-18T07:14:51.080Z,3736.00
2023-04-18T07:15:51.015Z,3724.00
2023-04-18T07:16:51.087Z,3776.00
2023-04-18T07:17:51.323Z,4376.00
2023-04-18T07:18:50.992Z,4688.00
2023-04-18T07:19:51.276Z,4604.00
2023-04-18T07:20:50.969Z,4620.00
2023-04-18T07:21:50.963Z,5080.00
2023-04-18T07:22:51.006Z,5480.00
2023-04-18T07:23:53.708Z,5408.00
2023-04-18T07:24:50.956Z,5288.00
2023-04-18T07:25:50.920Z,5376.00
2023-04-18T07:26:52.523Z,5276.00
2023-04-18T07:27:50.942Z,5148.00
2023-04-18T07:28:50.866Z,5052.00
2023-04-18T07:29:50.911Z,4988.00
2023-04-18T07:30:50.905Z,4880.00
2023-04-18T07:31:50.867Z,4880.00
2023-04-18T07:32:58.236Z,4868.00
2023-04-18T07:33:59.717Z,4760.00
2023-04-18T07:34:59.665Z,4676.00
2023-04-18T07:35:58.627Z,4880.00
2023-04-18T07:36:50.788Z,4236.00
2023-04-18T07:37:51.187Z,4836.00
2023-04-18T07:38:50.754Z,4404.00
2023-04-18T07:39:51.136Z,4448.00
2023-04-18T07:40:50.744Z,4984.00
2023-04-18T07:41:50.755Z,5384.00
2023-04-18T07:42:50.735Z,4796.00
2023-04-18T07:43:50.718Z,4796.00
2023-04-18T07:44:51.034Z,4876.00
2023-04-18T07:45:50.756Z,4880.00
2023-04-18T07:46:50.699Z,5172.00
2023-04-18T07:47:50.746Z,5280.00
2023-04-18T07:48:52.455Z,5120.00
2023-04-18T07:49:50.653Z,4856.00
2023-04-18T07:50:50.651Z,4824.00
2023-04-18T07:51:50.659Z,4820.00
2023-04-18T07:52:50.637Z,4868.00
2023-04-18T07:53:50.611Z,4880.00
2023-04-18T07:54:50.991Z,4996.00
2023-04-18T07:55:50.588Z,5204.00
2023-04-18T07:56:50.581Z,5232.00
2023-04-18T07:57:50.604Z,5312.00
2023-04-18T07:58:52.382Z,4952.00
2023-04-18T07:59:50.544Z,5548.00
2023-04-18T08:00:50.807Z,5280.00
2023-04-18T08:01:50.505Z,5004.00
2023-04-18T08:02:50.620Z,5596.00
2023-04-18T08:03:50.632Z,6084.00
2023-04-18T08:04:51.046Z,6724.00
2023-04-18T08:05:50.497Z,6848.00
2023-04-18T08:06:50.610Z,7180.00
2023-04-18T08:07:50.551Z,7524.00
2023-04-18T08:08:50.442Z,7744.00
2023-04-18T08:09:50.425Z,7964.00
2023-04-18T08:10:50.455Z,8304.00
2023-04-18T08:11:50.439Z,8076.00
2023-04-18T08:12:50.714Z,7580.00
2023-04-18T08:13:50.390Z,7328.00
2023-04-18T08:14:50.363Z,7444.00
2023-04-18T08:15:50.417Z,7604.00
2023-04-18T08:16:50.392Z,7780.00
2023-04-18T08:17:50.373Z,7572.00
2023-04-18T08:18:50.319Z,7348.00
2023-04-18T08:19:50.318Z,7392.00
2023-04-18T08:20:50.292Z,7492.00
2023-04-18T08:21:50.338Z,7608.00
2023-04-18T08:23:05.252Z,7492.00
2023-04-18T08:23:51.262Z,7440.00
2023-04-18T08:25:03.817Z,8004.00
2023-04-18T08:25:51.263Z,8584.00
2023-04-18T08:26:50.256Z,7840.00
2023-04-18T08:27:50.276Z,7932.00
2023-04-18T08:28:50.200Z,7976.00
2023-04-18T08:29:50.557Z,7916.00
2023-04-18T08:30:50.188Z,8192.00
2023-04-18T08:31:50.178Z,8588.00
2023-04-18T08:32:50.530Z,8696.00
2023-04-18T08:33:50.155Z,8692.00
2023-04-18T08:34:50.154Z,8632.00
2023-04-18T08:35:50.116Z,8828.00
2023-04-18T08:36:50.116Z,8924.00
2023-04-18T08:37:50.117Z,8836.00
2023-04-18T08:38:50.062Z,8648.00
2023-04-18T08:39:50.380Z,8484.00
2023-04-18T08:40:50.053Z,8360.00
2023-04-18T08:41:55.823Z,8172.00
2023-04-18T08:42:50.035Z,8116.00
2023-04-18T08:43:50.037Z,8312.00
2023-04-18T08:44:50.017Z,8492.00
2023-04-18T08:45:50.061Z,8740.00
2023-04-18T08:46:49.997Z,8988.00
2023-04-18T08:47:50.052Z,9144.00
2023-04-18T08:48:50.000Z,8952.00
2023-04-18T08:49:49.941Z,8896.00
2023-04-18T08:50:49.978Z,9016.00
2023-04-18T08:51:49.971Z,8984.00
2023-04-18T08:52:49.944Z,8648.00
2023-04-18T08:53:50.276Z,8488.00
2023-04-18T08:54:49.908Z,8520.00
2023-04-18T08:55:49.879Z,8624.00
2023-04-18T08:56:49.902Z,8320.00
2023-04-18T08:57:49.892Z,7932.00
2023-04-18T08:58:50.605Z,7636.00
2023-04-18T08:59:51.125Z,7492.00
2023-04-18T09:00:49.917Z,7732.00
2023-04-18T09:01:49.842Z,7812.00
2023-04-18T09:02:49.914Z,7672.00
2023-04-18T09:03:49.810Z,7540.00
2023-04-18T09:04:49.802Z,7800.00
2023-04-18T09:05:49.763Z,8108.00
2023-04-18T09:06:49.776Z,8240.00
2023-04-18T09:07:49.809Z,8192.00
2023-04-18T09:08:49.741Z,8008.00
2023-04-18T09:09:49.713Z,7892.00
2023-04-18T09:10:49.739Z,7776.00
2023-04-18T09:11:50.091Z,7640.00
2023-04-18T09:12:49.764Z,7688.00
2023-04-18T09:13:49.986Z,7792.00
2023-04-18T09:14:49.670Z,7864.00
2023-04-18T09:15:49.661Z,8176.00
2023-04-18T09:16:57.023Z,8268.00
2023-04-18T09:17:57.248Z,8268.00
2023-04-18T09:18:59.553Z,8312.00
2023-04-18T09:19:57.008Z,8348.00
2023-04-18T09:20:59.749Z,8100.00
2023-04-18T09:21:56.975Z,7696.00
2023-04-18T09:22:56.985Z,6984.00
2023-04-18T09:23:49.572Z,6600.00
2023-04-18T09:24:49.563Z,6576.00
2023-04-18T09:25:49.541Z,6580.00
2023-04-18T09:26:49.549Z,6648.00
2023-04-18T09:27:49.858Z,6884.00
2023-04-18T09:28:49.828Z,7720.00
2023-04-18T09:29:49.830Z,8808.00
2023-04-18T09:30:49.564Z,9332.00
2023-04-18T09:31:49.506Z,9252.00
2023-04-18T09:32:49.526Z,9088.00
2023-04-18T09:33:49.455Z,9236.00
2023-04-18T09:34:49.443Z,9644.00
2023-04-18T09:35:49.452Z,10096.00
2023-04-18T09:36:49.476Z,10520.00
2023-04-18T09:37:49.732Z,10528.00
2023-04-18T09:38:49.444Z,8388.00
2023-04-18T09:39:49.406Z,7720.00
2023-04-18T09:40:52.181Z,7476.00
2023-04-18T09:41:49.691Z,7780.00
2023-04-18T09:42:49.381Z,7992.00
2023-04-18T09:43:52.140Z,7920.00
2023-04-18T09:44:49.336Z,8200.00
2023-04-18T09:45:49.409Z,9000.00
2023-04-18T09:46:49.454Z,9804.00
2023-04-18T09:47:49.371Z,10252.00
2023-04-18T09:48:49.297Z,10936.00
2023-04-18T09:49:49.276Z,10392.00
2023-04-18T09:50:49.278Z,10240.00
2023-04-18T09:51:49.281Z,8840.00
2023-04-18T09:52:51.963Z,9220.00
2023-04-18T09:53:49.258Z,9880.00
2023-04-18T09:54:49.268Z,9516.00
2023-04-18T09:55:49.220Z,8984.00
2023-04-18T09:56:49.230Z,10956.00
2023-04-18T09:57:49.493Z,11348.00
2023-04-18T09:58:49.178Z,10460.00
2023-04-18T09:59:49.148Z,10504.00
2023-04-18T10:00:49.449Z,11800.00
2023-04-18T10:01:49.160Z,11848.00
2023-04-18T10:02:49.227Z,11396.00
2023-04-18T10:03:49.252Z,10940.00
2023-04-18T10:04:49.194Z,10292.00
2023-04-18T10:05:52.035Z,10968.00
2023-04-18T10:06:49.526Z,11612.00
2023-04-18T10:07:49.070Z,11948.00
2023-04-18T10:08:49.096Z,10820.00
2023-04-18T10:09:49.068Z,10944.00
2023-04-18T10:10:49.324Z,10144.00
2023-04-18T10:11:49.047Z,10612.00
2023-04-18T10:12:49.384Z,11348.00
2023-04-18T10:13:49.009Z,11628.00
2023-04-18T10:14:48.975Z,11496.00
2023-04-18T10:15:50.616Z,11088.00
2023-04-18T10:16:50.486Z,10872.00
2023-04-18T10:18:02.653Z,10832.00
2023-04-18T10:18:49.947Z,10696.00
2023-04-18T10:19:48.969Z,10136.00
2023-04-18T10:20:48.922Z,9660.00
2023-04-18T10:21:48.897Z,9304.00
2023-04-18T10:22:49.280Z,9176.00
2023-04-18T10:23:49.335Z,9072.00
2023-04-18T10:24:48.856Z,8848.00
2023-04-18T10:25:48.864Z,8872.00
2023-04-18T10:26:49.184Z,9152.00
2023-04-18T10:27:49.059Z,9368.00
2023-04-18T10:28:48.811Z,9188.00
2023-04-18T10:29:49.788Z,8808.00
2023-04-18T10:30:54.042Z,8884.00
2023-04-18T10:31:48.874Z,9456.00
2023-04-18T10:32:49.154Z,9892.00
2023-04-18T10:34:00.768Z,10060.00
2023-04-18T10:34:49.726Z,9904.00
2023-04-18T10:35:48.750Z,10324.00
2023-04-18T10:36:48.757Z,10916.00
2023-04-18T10:37:48.718Z,11468.00
2023-04-18T10:38:49.021Z,11128.00
2023-04-18T10:39:48.710Z,11168.00
2023-04-18T10:40:49.051Z,11076.00
2023-04-18T10:41:49.483Z,10852.00
2023-04-18T10:42:48.688Z,10672.00
2023-04-18T10:43:48.643Z,10600.00
2023-04-18T10:44:49.008Z,10744.00
2023-04-18T10:45:48.696Z,10604.00
2023-04-18T10:46:48.687Z,10472.00
2023-04-18T10:47:48.752Z,10848.00
2023-04-18T10:48:48.893Z,10508.00
2023-04-18T10:49:48.573Z,10404.00
2023-04-18T10:50:48.549Z,10780.00
2023-04-18T10:51:48.573Z,11012.00
2023-04-18T10:52:50.477Z,10872.00
2023-04-18T10:53:48.842Z,10456.00
2023-04-18T10:54:48.809Z,9808.00
2023-04-18T10:55:48.858Z,9972.00
2023-04-18T10:56:48.533Z,10256.00
2023-04-18T10:57:48.828Z,10156.00
2023-04-18T10:58:48.461Z,10176.00
2023-04-18T10:59:48.520Z,9900.00
2023-04-18T11:00:48.482Z,9600.00
2023-04-18T11:01:48.452Z,9920.00
2023-04-18T11:02:48.555Z,10408.00
2023-04-18T11:03:48.485Z,10596.00
2023-04-18T11:04:55.923Z,10976.00
2023-04-18T11:05:56.846Z,11532.00
2023-04-18T11:06:48.398Z,11728.00
2023-04-18T11:07:56.745Z,11644.00
2023-04-18T11:08:48.329Z,11636.00
2023-04-18T11:09:48.402Z,12308.00
2023-04-18T11:10:48.331Z,13120.00
2023-04-18T11:11:48.383Z,13692.00
2023-04-18T11:12:48.287Z,13780.00
2023-04-18T11:13:48.269Z,13832.00
2023-04-18T11:14:48.293Z,14880.00
2023-04-18T11:15:48.297Z,15008.00
2023-04-18T11:16:48.354Z,13872.00
2023-04-18T11:17:48.289Z,14720.00
2023-04-18T11:18:48.243Z,13936.00
2023-04-18T11:19:48.260Z,13828.00
2023-04-18T11:20:48.257Z,12856.00
2023-04-18T11:21:48.237Z,12372.00
2023-04-18T11:22:48.544Z,11884.00
2023-04-18T11:23:48.178Z,11904.00
2023-04-18T11:24:48.512Z,12220.00
2023-04-18T11:25:48.189Z,12572.00
2023-04-18T11:26:48.218Z,12516.00
2023-04-18T11:27:48.165Z,12100.00
2023-04-18T11:28:48.149Z,12072.00
2023-04-18T11:29:48.141Z,11952.00
2023-04-18T11:30:48.477Z,11464.00
2023-04-18T11:31:48.125Z,11144.00
2023-04-18T11:32:48.111Z,10904.00
2023-04-18T11:33:48.074Z,10892.00
2023-04-18T11:34:48.070Z,10996.00
2023-04-18T11:35:48.129Z,11664.00
2023-04-18T11:36:48.110Z,12032.00
2023-04-18T11:37:48.453Z,12348.00
2023-04-18T11:38:48.009Z,12320.00
2023-04-18T11:39:48.039Z,12408.00
2023-04-18T11:40:48.279Z,11444.00
2023-04-18T11:41:47.975Z,11364.00
2023-04-18T11:42:47.956Z,11536.00
2023-04-18T11:43:47.993Z,11440.00
2023-04-18T11:44:47.988Z,11596.00
2023-04-18T11:45:47.990Z,11748.00
2023-04-18T11:46:48.216Z,10960.00
2023-04-18T11:47:47.984Z,10604.00
2023-04-18T11:48:47.887Z,10964.00
2023-04-18T11:49:47.922Z,11636.00
2023-04-18T11:50:47.965Z,13160.00
2023-04-18T11:51:47.886Z,10892.00
2023-04-18T11:52:47.859Z,10420.00
2023-04-18T11:53:47.841Z,10064.00
2023-04-18T11:54:48.194Z,9760.00
2023-04-18T11:55:47.840Z,9552.00
2023-04-18T11:56:47.800Z,9372.00
2023-04-18T11:57:47.792Z,9396.00
2023-04-18T11:58:47.776Z,9816.00
2023-04-18T11:59:47.792Z,10012.00
2023-04-18T12:00:47.833Z,10404.00
2023-04-18T12:01:47.893Z,10508.00
2023-04-18T12:02:47.874Z,10112.00
2023-04-18T12:03:47.834Z,9700.00
2023-04-18T12:04:47.903Z,9684.00
2023-04-18T12:05:47.869Z,10080.00
2023-04-18T12:06:47.702Z,10408.00
2023-04-18T12:07:47.696Z,10380.00
2023-04-18T12:08:51.557Z,10348.00
2023-04-18T12:09:47.977Z,10888.00
2023-04-18T12:10:47.691Z,11680.00
2023-04-18T12:11:47.651Z,12036.00
2023-04-18T12:12:47.611Z,11924.00
2023-04-18T12:13:47.616Z,11672.00
2023-04-18T12:14:47.630Z,11728.00
2023-04-18T12:15:47.884Z,11736.00
2023-04-18T12:16:47.582Z,12076.00
2023-04-18T12:17:47.584Z,11432.00
2023-04-18T12:18:47.555Z,11772.00
2023-04-18T12:19:49.714Z,11896.00
2023-04-18T12:20:47.614Z,12204.00
2023-04-18T12:21:47.536Z,12324.00
2023-04-18T12:22:47.928Z,12276.00
2023-04-18T12:23:47.506Z,12780.00
2023-04-18T12:24:47.494Z,12880.00
2023-04-18T12:25:47.535Z,12796.00
2023-04-18T12:26:47.792Z,13568.00